createdAt,value
2022-09-03T00:02:22.400Z,23.00
2022-09-03T00:07:20.604Z,23.04
2022-09-03T00:12:20.782Z,23.15
2022-09-03T00:17:20.950Z,23.01
2022-09-03T00:22:20.114Z,23.28
2022-09-03T00:27:17.276Z,23.00
2022-09-03T00:32:17.441Z,22.73
2022-09-03T00:37:15.741Z,22.54
2022-09-03T00:42:14.781Z,22.75
2022-09-03T00:47:13.945Z,22.76
2022-09-03T00:52:14.094Z,22.86
2022-09-03T00:57:16.254Z,22.85
2022-09-03T01:02:11.521Z,22.43
2022-09-03T01:07:10.547Z,22.73
2022-09-03T01:12:10.701Z,22.52
2022-09-03T01:17:10.855Z,22.54
2022-09-03T01:22:07.997Z,22.46
2022-09-03T01:27:08.165Z,22.37
2022-09-03T01:32:06.309Z,22.58
2022-09-03T01:37:06.473Z,22.73
2022-09-03T01:42:04.646Z,22.88
2022-09-03T01:47:03.825Z,22.98
2022-09-03T01:52:04.983Z,22.80
2022-09-03T01:57:03.165Z,22.85
2022-09-03T02:02:01.464Z,22.77
2022-09-03T02:07:02.633Z,23.00
2022-09-03T02:11:59.789Z,23.12
2022-09-03T02:16:58.981Z,22.72
2022-09-03T02:21:58.141Z,22.67
2022-09-03T02:26:59.314Z,22.83
2022-09-03T02:31:57.465Z,23.02
2022-09-03T02:36:56.658Z,22.73
2022-09-03T02:41:54.808Z,22.65
2022-09-03T02:46:54.009Z,23.07
2022-09-03T02:51:54.184Z,23.04
2022-09-03T02:56:52.353Z,22.88
2022-09-03T03:01:52.561Z,23.13
2022-09-03T03:06:52.775Z,23.02
2022-09-03T03:11:50.902Z,23.12
2022-09-03T03:16:49.105Z,23.10
2022-09-03T03:21:47.298Z,23.16
2022-09-03T03:26:47.507Z,23.17
2022-09-03T03:31:46.720Z,23.16
2022-09-03T03:36:45.902Z,23.15
2022-09-03T03:41:45.181Z,22.80
2022-09-03T03:46:45.341Z,22.31
2022-09-03T03:51:45.559Z,22.60
2022-09-03T03:56:43.713Z,22.47
2022-09-03T04:01:42.077Z,22.67
2022-09-03T04:06:42.277Z,22.82
2022-09-03T04:11:40.458Z,22.60
2022-09-03T04:16:40.710Z,22.92
2022-09-03T04:21:38.904Z,22.51
2022-09-03T04:26:39.070Z,22.88
2022-09-03T04:31:37.245Z,23.00
2022-09-03T04:36:38.465Z,23.04
2022-09-03T04:41:36.620Z,22.92
2022-09-03T04:46:38.919Z,23.02
2022-09-03T04:51:35.075Z,22.91
2022-09-03T04:56:34.237Z,22.79
2022-09-03T05:01:32.535Z,23.01
2022-09-03T05:06:31.716Z,22.92
2022-09-03T05:11:30.867Z,23.00
2022-09-03T05:16:30.185Z,23.04
2022-09-03T05:21:29.239Z,23.05
2022-09-03T05:26:29.389Z,23.00
2022-09-03T05:31:28.602Z,22.65
2022-09-03T05:36:27.756Z,22.64
2022-09-03T05:41:25.920Z,22.05
2022-09-03T05:46:25.085Z,22.21
2022-09-03T05:51:26.242Z,22.46
2022-09-03T05:56:24.387Z,22.37
2022-09-03T06:01:23.558Z,21.58
2022-09-03T06:06:21.716Z,22.17
2022-09-03T06:11:21.904Z,22.02
2022-09-03T06:16:22.498Z,22.18
2022-09-03T06:21:18.302Z,21.84
2022-09-03T06:26:19.479Z,21.96
2022-09-03T06:31:17.669Z,22.58
2022-09-03T06:36:17.819Z,22.54
2022-09-03T06:41:16.027Z,22.42
2022-09-03T06:46:16.246Z,22.30
2022-09-03T06:51:15.380Z,22.37
2022-09-03T06:56:14.524Z,22.39
2022-09-03T07:01:12.786Z,22.82
2022-09-03T07:06:12.818Z,22.68
2022-09-03T07:11:10.994Z,22.91
2022-09-03T07:16:11.271Z,22.80
2022-09-03T07:21:09.486Z,22.72
2022-09-03T07:26:09.666Z,23.02
2022-09-03T07:31:08.849Z,22.95
2022-09-03T07:36:07.063Z,22.24
2022-09-03T07:41:06.253Z,22.62
2022-09-03T07:46:05.430Z,22.52
2022-09-03T07:51:04.618Z,21.99
2022-09-03T07:56:03.781Z,21.91
2022-09-03T08:01:02.992Z,21.86
2022-09-03T08:06:02.163Z,22.46
2022-09-03T08:11:02.335Z,22.57
2022-09-03T08:16:00.571Z,22.36
2022-09-03T08:20:59.765Z,21.74
2022-09-03T08:25:59.066Z,22.40
2022-09-03T08:30:59.394Z,22.09
2022-09-03T08:35:57.512Z,22.47
2022-09-03T08:40:56.804Z,22.64
2022-09-03T08:45:56.117Z,22.65
2022-09-03T08:50:57.431Z,22.68
2022-09-03T08:55:53.729Z,22.79
2022-09-03T09:00:55.041Z,22.80
2022-09-03T09:05:53.388Z,22.67
2022-09-03T09:10:54.650Z,23.01
2022-09-03T09:15:53.031Z,23.05
2022-09-03T09:20:51.150Z,23.16
2022-09-03T09:25:51.274Z,23.25
2022-09-03T09:30:50.605Z,23.32
2022-09-03T09:35:48.707Z,23.39
2022-09-03T09:40:48.040Z,23.36
2022-09-03T09:45:47.189Z,23.46
2022-09-03T09:50:46.322Z,23.51
2022-09-03T09:55:46.676Z,23.47
2022-09-03T10:00:45.812Z,23.35
2022-09-03T10:05:45.114Z,23.50
2022-09-03T10:10:43.411Z,23.39
2022-09-03T10:15:43.800Z,23.68
2022-09-03T10:20:42.929Z,23.75
2022-09-03T10:25:42.289Z,23.94
2022-09-03T10:30:40.607Z,23.90
2022-09-03T10:35:40.741Z,24.15
2022-09-03T10:40:39.029Z,24.12
2022-09-03T10:45:39.331Z,24.21
2022-09-03T10:50:37.628Z,24.24
2022-09-03T10:55:37.921Z,24.20
2022-09-03T11:00:36.325Z,24.30
2022-09-03T11:05:37.464Z,24.18
2022-09-03T11:10:34.558Z,23.84
2022-09-03T11:15:33.932Z,23.04
2022-09-03T11:20:33.071Z,22.60
2022-09-03T11:25:33.374Z,22.17
2022-09-03T11:30:32.720Z,20.02
2022-09-03T11:35:52.158Z,16.42
2022-09-03T13:21:46.906Z,24.58
2022-09-03T13:26:48.184Z,24.45
2022-09-03T13:31:47.454Z,25.17
2022-09-03T13:36:45.747Z,26.37
2022-09-03T13:41:46.060Z,24.95
2022-09-03T13:46:46.352Z,27.07
2022-09-03T13:51:43.645Z,26.67
2022-09-03T13:56:42.981Z,26.84
2022-09-03T14:01:42.232Z,26.75
2022-09-03T14:06:41.501Z,27.47
2022-09-03T14:11:41.769Z,27.97
2022-09-03T14:16:40.193Z,27.21
2022-09-03T14:21:38.252Z,27.02
2022-09-03T14:26:39.790Z,27.46
2022-09-03T14:31:37.721Z,26.94
2022-09-03T14:36:37.021Z,26.69
2022-09-03T14:41:37.330Z,25.92
2022-09-03T14:46:36.587Z,26.99
2022-09-03T14:51:34.879Z,27.55
2022-09-03T14:56:34.142Z,26.89
2022-09-03T15:01:39.033Z,28.19
2022-09-03T15:06:32.583Z,27.32
2022-09-03T15:11:31.882Z,26.89
2022-09-03T15:16:31.265Z,27.62
2022-09-03T15:21:30.431Z,27.99
2022-09-03T15:26:29.754Z,27.67
2022-09-03T15:31:30.092Z,27.21
2022-09-03T15:36:28.168Z,27.24
2022-09-03T15:41:26.439Z,27.28
2022-09-03T15:46:27.733Z,27.10
2022-09-03T15:51:26.036Z,26.99
2022-09-03T15:56:26.360Z,26.76
2022-09-03T16:01:26.717Z,25.88
2022-09-03T16:06:24.933Z,25.50
2022-09-03T16:11:24.195Z,25.45
2022-09-03T16:16:21.477Z,24.68
2022-09-03T16:21:22.771Z,25.28
2022-09-03T16:26:22.018Z,24.98
2022-09-03T16:31:20.272Z,24.81
2022-09-03T16:36:20.520Z,24.57
2022-09-03T16:41:20.749Z,23.93
2022-09-03T16:46:18.067Z,23.43
2022-09-03T16:51:18.352Z,23.95
2022-09-03T16:56:17.950Z,23.78
2022-09-03T17:01:16.034Z,23.65
2022-09-03T17:06:16.031Z,23.55
2022-09-03T17:11:15.370Z,23.93
2022-09-03T17:16:20.332Z,23.70
2022-09-03T17:21:13.887Z,24.05
2022-09-03T17:26:12.819Z,24.00
2022-09-03T17:31:12.356Z,24.00
2022-09-03T17:36:10.547Z,23.75
2022-09-03T17:41:09.691Z,23.66
2022-09-03T17:46:10.948Z,23.94
2022-09-03T17:51:09.094Z,23.91
2022-09-03T17:56:07.251Z,23.76
2022-09-03T18:01:07.404Z,23.58
2022-09-03T18:06:06.547Z,23.55
2022-09-03T18:11:05.942Z,23.60
2022-09-03T18:16:05.161Z,23.58
2022-09-03T18:21:22.916Z,23.42
2022-09-03T18:26:04.563Z,23.57
2022-09-03T18:31:02.763Z,22.52
2022-09-03T18:36:00.950Z,23.36
2022-09-03T18:41:02.235Z,23.60
2022-09-03T18:50:58.905Z,23.57
2022-09-03T18:55:58.026Z,23.61
2022-09-03T19:00:57.240Z,23.35
2022-09-03T19:05:56.411Z,23.31
2022-09-03T19:10:56.713Z,22.86
2022-09-03T19:15:56.110Z,23.10
2022-09-03T19:20:54.271Z,23.61
2022-09-03T19:25:53.603Z,23.79
2022-09-03T19:30:53.773Z,23.87
2022-09-03T19:35:51.763Z,23.94
2022-09-03T19:40:51.059Z,23.97
2022-09-03T19:45:52.444Z,23.91
2022-09-03T19:50:50.718Z,23.20
2022-09-03T19:55:48.915Z,22.68
2022-09-03T20:00:47.926Z,22.36
2022-09-03T20:05:48.161Z,22.80
2022-09-03T20:10:46.488Z,22.73
2022-09-03T20:15:46.702Z,23.12
2022-09-03T20:20:44.860Z,23.27
2022-09-03T20:25:43.910Z,23.07
2022-09-03T20:30:43.279Z,22.67
2022-09-03T20:35:42.321Z,22.21
2022-09-03T20:40:42.482Z,22.05
2022-09-03T20:45:44.263Z,22.18
2022-09-03T20:50:39.861Z,22.70
2022-09-03T20:55:40.022Z,22.51
2022-09-03T21:00:38.170Z,22.92
2022-09-03T21:05:38.321Z,22.60
2022-09-03T21:10:36.484Z,22.64
2022-09-03T21:15:35.708Z,22.80
2022-09-03T21:20:34.821Z,23.02
2022-09-03T21:25:34.963Z,23.07
2022-09-03T21:30:34.110Z,23.25
2022-09-03T21:35:33.462Z,23.02
2022-09-03T21:40:32.449Z,23.04
2022-09-03T21:45:30.847Z,23.12
2022-09-03T21:50:30.985Z,22.80
2022-09-03T21:55:30.328Z,23.02
2022-09-03T22:00:28.468Z,23.05
2022-09-03T22:05:27.627Z,22.61
2022-09-03T22:10:27.917Z,21.79
2022-09-03T22:15:30.068Z,22.02
2022-09-03T22:20:25.398Z,22.54
2022-09-03T22:25:23.552Z,22.91
2022-09-03T22:30:23.732Z,22.95
2022-09-03T22:35:22.893Z,22.76
2022-09-03T22:40:22.045Z,23.12
2022-09-03T22:45:22.185Z,23.09
2022-09-03T22:50:19.312Z,23.20
2022-09-03T22:55:21.475Z,23.22
2022-09-03T23:00:18.606Z,23.35
2022-09-03T23:05:17.748Z,22.80
2022-09-03T23:10:22.619Z,22.73
2022-09-03T23:15:17.186Z,22.82
2022-09-03T23:20:16.434Z,22.57
2022-09-03T23:25:14.560Z,22.12
2022-09-03T23:30:13.911Z,22.97
2022-09-03T23:35:13.052Z,22.90
2022-09-03T23:40:13.194Z,23.27
2022-09-03T23:45:15.564Z,23.39
2022-09-03T23:50:10.814Z,23.46
2022-09-03T23:55:09.988Z,23.51
